Bronson, Michigan
Current Conditions -  °F | °C
As of 5:35 AM on Thursday 18 Dec 2014 (Local Time) from KOEB Reporting Station
Overcast Overcast  
Wind Chill: 21°   Ceiling: 1800
Heat Index: 28°   Visibility: 10mi
Dew Point: 23°   Wind: 7mph
Humidity: 83%   Direction: 270°W
Pressure: 30.2"   Gusts: NA
Location:  41.87°N, 85.19°W
Report Text: KOEB 181035Z AUTO 27006KT 10SM OVC018 M02/M05 A3020 RMK AO2 T10221048
Loading
Personal Weather Stations






























Interactive Weather Map New forecast layout! Learn more

10-Day Weather Forecast

Advertisements
Track Severe Weather on mobile